sensor_id;sensor_type;location;lat;lon;timestamp;P1;durP1;ratioP1;P2;durP2;ratioP2
17890;SDS011;9071;48.220;14.480;2022-08-21T00:01:40;16.23;;;13.95;;
17890;SDS011;9071;48.220;14.480;2022-08-21T00:06:44;18.17;;;12.48;;
17890;SDS011;9071;48.220;14.480;2022-08-21T00:11:46;17.25;;;12.50;;
17890;SDS011;9071;48.220;14.480;2022-08-21T00:16:48;17.02;;;12.48;;
17890;SDS011;9071;48.220;14.480;2022-08-21T00:21:52;18.35;;;12.88;;
17890;SDS011;9071;48.220;14.480;2022-08-21T00:26:55;16.85;;;13.05;;
17890;SDS011;9071;48.220;14.480;2022-08-21T00:31:57;19.65;;;12.50;;
17890;SDS011;9071;48.220;14.480;2022-08-21T00:37:01;16.05;;;12.50;;
17890;SDS011;9071;48.220;14.480;2022-08-21T00:42:03;15.35;;;11.52;;
17890;SDS011;9071;48.220;14.480;2022-08-21T00:47:06;14.80;;;11.65;;
17890;SDS011;9071;48.220;14.480;2022-08-21T00:52:11;16.02;;;11.30;;
17890;SDS011;9071;48.220;14.480;2022-08-21T00:57:17;16.70;;;11.85;;
17890;SDS011;9071;48.220;14.480;2022-08-21T01:02:22;17.55;;;12.75;;
17890;SDS011;9071;48.220;14.480;2022-08-21T01:07:25;15.57;;;11.82;;
17890;SDS011;9071;48.220;14.480;2022-08-21T01:12:28;16.25;;;12.63;;
17890;SDS011;9071;48.220;14.480;2022-08-21T01:17:30;14.38;;;11.85;;
17890;SDS011;9071;48.220;14.480;2022-08-21T01:22:34;15.88;;;11.77;;
17890;SDS011;9071;48.220;14.480;2022-08-21T01:27:37;17.58;;;12.93;;
17890;SDS011;9071;48.220;14.480;2022-08-21T01:32:39;21.30;;;13.98;;
17890;SDS011;9071;48.220;14.480;2022-08-21T01:37:43;18.58;;;13.48;;
17890;SDS011;9071;48.220;14.480;2022-08-21T01:42:46;20.42;;;14.95;;
17890;SDS011;9071;48.220;14.480;2022-08-21T01:47:48;21.45;;;15.73;;
17890;SDS011;9071;48.220;14.480;2022-08-21T01:52:52;21.92;;;16.08;;
17890;SDS011;9071;48.220;14.480;2022-08-21T01:57:54;22.52;;;16.23;;
17890;SDS011;9071;48.220;14.480;2022-08-21T02:02:56;25.48;;;16.55;;
17890;SDS011;9071;48.220;14.480;2022-08-21T02:07:59;25.20;;;17.05;;
17890;SDS011;9071;48.220;14.480;2022-08-21T02:13:02;25.45;;;18.27;;
17890;SDS011;9071;48.220;14.480;2022-08-21T02:18:05;23.90;;;17.75;;
17890;SDS011;9071;48.220;14.480;2022-08-21T02:23:09;23.73;;;18.20;;
17890;SDS011;9071;48.220;14.480;2022-08-21T02:28:12;24.00;;;17.88;;
17890;SDS011;9071;48.220;14.480;2022-08-21T02:33:15;22.73;;;17.30;;
17890;SDS011;9071;48.220;14.480;2022-08-21T02:38:21;23.83;;;17.27;;
17890;SDS011;9071;48.220;14.480;2022-08-21T02:43:26;22.17;;;15.95;;
17890;SDS011;9071;48.220;14.480;2022-08-21T02:48:30;21.48;;;15.70;;
17890;SDS011;9071;48.220;14.480;2022-08-21T02:53:35;23.35;;;17.75;;
17890;SDS011;9071;48.220;14.480;2022-08-21T02:58:38;21.92;;;15.65;;
17890;SDS011;9071;48.220;14.480;2022-08-21T03:03:42;21.88;;;15.70;;
17890;SDS011;9071;48.220;14.480;2022-08-21T03:08:51;21.95;;;16.45;;
17890;SDS011;9071;48.220;14.480;2022-08-21T03:13:53;25.38;;;17.73;;
17890;SDS011;9071;48.220;14.480;2022-08-21T03:18:55;22.05;;;16.40;;
17890;SDS011;9071;48.220;14.480;2022-08-21T03:23:58;22.98;;;16.95;;
17890;SDS011;9071;48.220;14.480;2022-08-21T03:29:01;22.27;;;17.17;;
17890;SDS011;9071;48.220;14.480;2022-08-21T03:34:03;21.85;;;16.80;;
17890;SDS011;9071;48.220;14.480;2022-08-21T03:39:06;25.95;;;17.30;;
17890;SDS011;9071;48.220;14.480;2022-08-21T03:44:08;24.25;;;18.45;;
17890;SDS011;9071;48.220;14.480;2022-08-21T03:49:11;26.33;;;18.13;;
17890;SDS011;9071;48.220;14.480;2022-08-21T03:54:15;24.05;;;17.92;;
17890;SDS011;9071;48.220;14.480;2022-08-21T03:59:17;23.73;;;17.52;;
17890;SDS011;9071;48.220;14.480;2022-08-21T04:04:19;20.80;;;16.08;;
17890;SDS011;9071;48.220;14.480;2022-08-21T04:09:23;20.23;;;15.80;;
17890;SDS011;9071;48.220;14.480;2022-08-21T04:14:25;22.08;;;15.98;;
17890;SDS011;9071;48.220;14.480;2022-08-21T04:19:27;19.45;;;14.90;;
17890;SDS011;9071;48.220;14.480;2022-08-21T04:24:31;21.00;;;14.85;;
17890;SDS011;9071;48.220;14.480;2022-08-21T04:29:33;23.05;;;16.65;;
17890;SDS011;9071;48.220;14.480;2022-08-21T04:34:35;24.55;;;15.18;;
17890;SDS011;9071;48.220;14.480;2022-08-21T04:39:38;23.73;;;15.27;;
17890;SDS011;9071;48.220;14.480;2022-08-21T04:44:40;25.30;;;16.48;;
17890;SDS011;9071;48.220;14.480;2022-08-21T04:49:43;19.27;;;14.38;;
17890;SDS011;9071;48.220;14.480;2022-08-21T04:54:46;19.10;;;14.30;;
17890;SDS011;9071;48.220;14.480;2022-08-21T04:59:52;20.63;;;15.05;;
17890;SDS011;9071;48.220;14.480;2022-08-21T05:04:54;18.75;;;14.10;;
17890;SDS011;9071;48.220;14.480;2022-08-21T05:09:59;20.15;;;14.70;;
17890;SDS011;9071;48.220;14.480;2022-08-21T05:15:02;17.73;;;13.73;;
17890;SDS011;9071;48.220;14.480;2022-08-21T05:20:05;17.67;;;13.50;;
17890;SDS011;9071;48.220;14.480;2022-08-21T05:25:09;19.58;;;13.10;;
17890;SDS011;9071;48.220;14.480;2022-08-21T05:30:12;16.20;;;12.77;;
17890;SDS011;9071;48.220;14.480;2022-08-21T05:35:14;17.63;;;12.27;;
17890;SDS011;9071;48.220;14.480;2022-08-21T05:40:18;25.35;;;14.63;;
17890;SDS011;9071;48.220;14.480;2022-08-21T05:45:20;17.52;;;14.25;;
17890;SDS011;9071;48.220;14.480;2022-08-21T05:50:22;17.42;;;12.98;;
17890;SDS011;9071;48.220;14.480;2022-08-21T05:55:26;16.42;;;13.13;;
17890;SDS011;9071;48.220;14.480;2022-08-21T06:00:28;18.23;;;14.05;;
17890;SDS011;9071;48.220;14.480;2022-08-21T06:05:30;21.23;;;13.75;;
17890;SDS011;9071;48.220;14.480;2022-08-21T06:10:34;18.33;;;14.55;;
17890;SDS011;9071;48.220;14.480;2022-08-21T06:15:36;21.90;;;14.45;;
17890;SDS011;9071;48.220;14.480;2022-08-21T06:20:38;18.63;;;14.63;;
17890;SDS011;9071;48.220;14.480;2022-08-21T06:25:42;21.63;;;15.40;;
17890;SDS011;9071;48.220;14.480;2022-08-21T06:30:44;21.00;;;15.60;;
17890;SDS011;9071;48.220;14.480;2022-08-21T06:35:46;19.80;;;14.95;;
17890;SDS011;9071;48.220;14.480;2022-08-21T06:40:49;18.30;;;15.52;;
17890;SDS011;9071;48.220;14.480;2022-08-21T06:45:51;20.08;;;15.65;;
17890;SDS011;9071;48.220;14.480;2022-08-21T06:50:54;21.67;;;16.00;;
17890;SDS011;9071;48.220;14.480;2022-08-21T06:55:57;22.80;;;16.63;;
17890;SDS011;9071;48.220;14.480;2022-08-21T07:01:00;23.77;;;16.90;;
17890;SDS011;9071;48.220;14.480;2022-08-21T07:06:02;25.20;;;18.42;;
17890;SDS011;9071;48.220;14.480;2022-08-21T07:11:09;23.40;;;16.83;;
17890;SDS011;9071;48.220;14.480;2022-08-21T07:16:14;23.40;;;16.35;;
17890;SDS011;9071;48.220;14.480;2022-08-21T07:21:16;22.08;;;16.38;;
17890;SDS011;9071;48.220;14.480;2022-08-21T07:26:21;22.10;;;15.27;;
17890;SDS011;9071;48.220;14.480;2022-08-21T07:31:24;20.88;;;15.40;;
17890;SDS011;9071;48.220;14.480;2022-08-21T07:36:26;24.30;;;16.27;;
17890;SDS011;9071;48.220;14.480;2022-08-21T07:41:30;27.25;;;17.50;;
17890;SDS011;9071;48.220;14.480;2022-08-21T07:46:32;22.33;;;16.80;;
17890;SDS011;9071;48.220;14.480;2022-08-21T07:51:34;24.48;;;16.95;;
17890;SDS011;9071;48.220;14.480;2022-08-21T07:56:38;25.23;;;18.52;;
17890;SDS011;9071;48.220;14.480;2022-08-21T08:01:40;22.60;;;17.30;;
17890;SDS011;9071;48.220;14.480;2022-08-21T08:06:42;23.48;;;17.45;;
17890;SDS011;9071;48.220;14.480;2022-08-21T08:11:45;26.30;;;18.48;;
17890;SDS011;9071;48.220;14.480;2022-08-21T08:16:47;25.70;;;17.60;;
17890;SDS011;9071;48.220;14.480;2022-08-21T08:21:49;23.77;;;17.13;;
17890;SDS011;9071;48.220;14.480;2022-08-21T08:26:53;22.02;;;15.82;;
17890;SDS011;9071;48.220;14.480;2022-08-21T08:31:57;21.00;;;15.63;;
17890;SDS011;9071;48.220;14.480;2022-08-21T08:36:59;20.58;;;14.93;;
17890;SDS011;9071;48.220;14.480;2022-08-21T08:42:03;22.33;;;15.27;;
17890;SDS011;9071;48.220;14.480;2022-08-21T08:47:09;20.25;;;15.15;;
17890;SDS011;9071;48.220;14.480;2022-08-21T08:52:15;21.33;;;16.38;;
17890;SDS011;9071;48.220;14.480;2022-08-21T08:57:23;23.90;;;17.17;;
17890;SDS011;9071;48.220;14.480;2022-08-21T09:02:26;20.52;;;15.73;;
17890;SDS011;9071;48.220;14.480;2022-08-21T09:07:32;24.50;;;17.60;;
17890;SDS011;9071;48.220;14.480;2022-08-21T09:12:44;24.83;;;18.73;;
17890;SDS011;9071;48.220;14.480;2022-08-21T09:17:59;28.48;;;19.45;;
17890;SDS011;9071;48.220;14.480;2022-08-21T09:23:18;27.63;;;19.33;;
17890;SDS011;9071;48.220;14.480;2022-08-21T09:28:26;27.27;;;20.65;;
17890;SDS011;9071;48.220;14.480;2022-08-21T09:33:33;28.52;;;20.23;;
17890;SDS011;9071;48.220;14.480;2022-08-21T09:38:36;31.00;;;21.42;;
17890;SDS011;9071;48.220;14.480;2022-08-21T09:43:40;30.67;;;22.58;;
17890;SDS011;9071;48.220;14.480;2022-08-21T09:48:54;28.45;;;21.40;;
17890;SDS011;9071;48.220;14.480;2022-08-21T09:54:07;29.35;;;20.90;;
17890;SDS011;9071;48.220;14.480;2022-08-21T09:59:24;28.58;;;20.23;;
17890;SDS011;9071;48.220;14.480;2022-08-21T10:04:31;27.27;;;20.38;;
17890;SDS011;9071;48.220;14.480;2022-08-21T10:09:35;29.92;;;19.83;;
17890;SDS011;9071;48.220;14.480;2022-08-21T10:14:42;25.67;;;19.17;;
17890;SDS011;9071;48.220;14.480;2022-08-21T10:19:56;27.73;;;19.60;;
17890;SDS011;9071;48.220;14.480;2022-08-21T10:25:09;29.55;;;20.00;;
17890;SDS011;9071;48.220;14.480;2022-08-21T10:30:21;37.60;;;21.38;;
17890;SDS011;9071;48.220;14.480;2022-08-21T10:35:41;25.48;;;18.60;;
17890;SDS011;9071;48.220;14.480;2022-08-21T10:40:50;25.65;;;18.70;;
17890;SDS011;9071;48.220;14.480;2022-08-21T10:46:04;26.05;;;18.73;;
17890;SDS011;9071;48.220;14.480;2022-08-21T10:51:14;19.35;;;15.60;;
17890;SDS011;9071;48.220;14.480;2022-08-21T10:56:22;17.88;;;13.52;;
17890;SDS011;9071;48.220;14.480;2022-08-21T11:01:28;14.27;;;11.80;;
17890;SDS011;9071;48.220;14.480;2022-08-21T11:06:34;12.75;;;10.00;;
17890;SDS011;9071;48.220;14.480;2022-08-21T11:11:41;10.50;;;9.00;;
17890;SDS011;9071;48.220;14.480;2022-08-21T11:16:50;10.98;;;9.50;;
17890;SDS011;9071;48.220;14.480;2022-08-21T11:21:59;9.38;;;7.95;;
17890;SDS011;9071;48.220;14.480;2022-08-21T11:27:09;9.55;;;7.22;;
17890;SDS011;9071;48.220;14.480;2022-08-21T11:32:30;10.00;;;7.28;;
17890;SDS011;9071;48.220;14.480;2022-08-21T11:37:58;4.82;;;4.30;;
17890;SDS011;9071;48.220;14.480;2022-08-21T11:43:12;7.80;;;6.57;;
17890;SDS011;9071;48.220;14.480;2022-08-21T11:48:26;4.20;;;3.55;;
17890;SDS011;9071;48.220;14.480;2022-08-21T11:53:39;4.32;;;3.65;;
17890;SDS011;9071;48.220;14.480;2022-08-21T11:58:51;3.88;;;2.80;;
17890;SDS011;9071;48.220;14.480;2022-08-21T12:04:00;3.20;;;2.88;;
17890;SDS011;9071;48.220;14.480;2022-08-21T12:09:06;2.97;;;2.67;;
17890;SDS011;9071;48.220;14.480;2022-08-21T12:14:12;3.53;;;2.90;;
17890;SDS011;9071;48.220;14.480;2022-08-21T12:19:29;3.20;;;2.40;;
17890;SDS011;9071;48.220;14.480;2022-08-21T12:24:33;3.33;;;2.50;;
17890;SDS011;9071;48.220;14.480;2022-08-21T12:29:39;3.50;;;2.67;;
17890;SDS011;9071;48.220;14.480;2022-08-21T12:34:52;2.75;;;2.53;;
17890;SDS011;9071;48.220;14.480;2022-08-21T12:39:57;2.65;;;2.42;;
17890;SDS011;9071;48.220;14.480;2022-08-21T12:45:03;3.95;;;3.55;;
17890;SDS011;9071;48.220;14.480;2022-08-21T12:50:15;2.55;;;2.20;;
17890;SDS011;9071;48.220;14.480;2022-08-21T12:55:25;2.60;;;2.40;;
17890;SDS011;9071;48.220;14.480;2022-08-21T13:00:29;4.80;;;2.70;;
17890;SDS011;9071;48.220;14.480;2022-08-21T13:05:35;2.20;;;2.00;;
17890;SDS011;9071;48.220;14.480;2022-08-21T13:10:38;2.15;;;2.00;;
17890;SDS011;9071;48.220;14.480;2022-08-21T13:15:42;2.10;;;1.90;;
17890;SDS011;9071;48.220;14.480;2022-08-21T13:20:46;2.30;;;2.10;;
17890;SDS011;9071;48.220;14.480;2022-08-21T13:25:48;3.05;;;2.20;;
17890;SDS011;9071;48.220;14.480;2022-08-21T13:30:51;3.00;;;2.10;;
17890;SDS011;9071;48.220;14.480;2022-08-21T13:36:00;4.10;;;2.47;;
17890;SDS011;9071;48.220;14.480;2022-08-21T13:41:08;2.80;;;2.20;;
17890;SDS011;9071;48.220;14.480;2022-08-21T13:46:19;2.50;;;2.30;;
17890;SDS011;9071;48.220;14.480;2022-08-21T13:51:26;2.95;;;2.33;;
17890;SDS011;9071;48.220;14.480;2022-08-21T13:56:29;3.03;;;2.50;;
17890;SDS011;9071;48.220;14.480;2022-08-21T14:01:35;2.92;;;2.53;;
17890;SDS011;9071;48.220;14.480;2022-08-21T14:06:41;4.20;;;2.30;;
17890;SDS011;9071;48.220;14.480;2022-08-21T14:11:44;3.28;;;2.42;;
17890;SDS011;9071;48.220;14.480;2022-08-21T14:16:46;3.63;;;2.50;;
17890;SDS011;9071;48.220;14.480;2022-08-21T14:21:56;3.13;;;2.83;;
17890;SDS011;9071;48.220;14.480;2022-08-21T14:27:01;3.83;;;2.38;;
17890;SDS011;9071;48.220;14.480;2022-08-21T14:32:08;3.03;;;2.65;;
17890;SDS011;9071;48.220;14.480;2022-08-21T14:37:14;5.15;;;3.63;;
17890;SDS011;9071;48.220;14.480;2022-08-21T14:42:17;4.40;;;2.95;;
17890;SDS011;9071;48.220;14.480;2022-08-21T14:47:20;4.35;;;3.47;;
17890;SDS011;9071;48.220;14.480;2022-08-21T14:52:24;4.38;;;3.20;;
17890;SDS011;9071;48.220;14.480;2022-08-21T14:57:26;5.13;;;4.50;;
17890;SDS011;9071;48.220;14.480;2022-08-21T15:02:30;3.33;;;3.03;;
17890;SDS011;9071;48.220;14.480;2022-08-21T15:07:34;3.40;;;3.10;;
17890;SDS011;9071;48.220;14.480;2022-08-21T15:12:36;4.00;;;3.60;;
17890;SDS011;9071;48.220;14.480;2022-08-21T15:17:38;4.95;;;3.92;;
17890;SDS011;9071;48.220;14.480;2022-08-21T15:22:42;5.38;;;4.15;;
17890;SDS011;9071;48.220;14.480;2022-08-21T15:27:44;5.38;;;4.25;;
17890;SDS011;9071;48.220;14.480;2022-08-21T15:32:46;5.07;;;4.60;;
17890;SDS011;9071;48.220;14.480;2022-08-21T15:37:49;4.60;;;3.80;;
17890;SDS011;9071;48.220;14.480;2022-08-21T15:42:51;4.93;;;4.47;;
17890;SDS011;9071;48.220;14.480;2022-08-21T15:47:57;5.25;;;4.75;;
17890;SDS011;9071;48.220;14.480;2022-08-21T15:53:00;4.85;;;4.35;;
17890;SDS011;9071;48.220;14.480;2022-08-21T15:58:03;7.18;;;5.85;;
17890;SDS011;9071;48.220;14.480;2022-08-21T16:03:06;6.40;;;4.93;;
17890;SDS011;9071;48.220;14.480;2022-08-21T16:08:13;5.38;;;4.88;;
17890;SDS011;9071;48.220;14.480;2022-08-21T16:13:16;5.65;;;4.32;;
17890;SDS011;9071;48.220;14.480;2022-08-21T16:18:22;4.80;;;4.30;;
17890;SDS011;9071;48.220;14.480;2022-08-21T16:23:27;4.70;;;4.30;;
17890;SDS011;9071;48.220;14.480;2022-08-21T16:28:29;4.80;;;4.30;;
17890;SDS011;9071;48.220;14.480;2022-08-21T16:33:33;3.92;;;3.55;;
17890;SDS011;9071;48.220;14.480;2022-08-21T16:38:38;4.88;;;4.10;;
17890;SDS011;9071;48.220;14.480;2022-08-21T16:43:42;4.85;;;4.13;;
17890;SDS011;9071;48.220;14.480;2022-08-21T16:48:46;6.13;;;4.22;;
17890;SDS011;9071;48.220;14.480;2022-08-21T16:53:50;5.00;;;4.50;;
17890;SDS011;9071;48.220;14.480;2022-08-21T16:58:53;4.78;;;4.28;;
17890;SDS011;9071;48.220;14.480;2022-08-21T17:03:56;6.10;;;5.07;;
17890;SDS011;9071;48.220;14.480;2022-08-21T17:09:00;4.63;;;4.07;;
17890;SDS011;9071;48.220;14.480;2022-08-21T17:14:03;4.97;;;4.45;;
17890;SDS011;9071;48.220;14.480;2022-08-21T17:19:08;6.53;;;5.75;;
17890;SDS011;9071;48.220;14.480;2022-08-21T17:24:13;10.27;;;5.65;;
17890;SDS011;9071;48.220;14.480;2022-08-21T17:29:15;10.80;;;7.22;;
17890;SDS011;9071;48.220;14.480;2022-08-21T17:34:20;10.82;;;8.00;;
17890;SDS011;9071;48.220;14.480;2022-08-21T17:39:24;7.10;;;6.13;;
17890;SDS011;9071;48.220;14.480;2022-08-21T17:44:26;10.45;;;7.28;;
17890;SDS011;9071;48.220;14.480;2022-08-21T17:49:28;15.65;;;10.80;;
17890;SDS011;9071;48.220;14.480;2022-08-21T17:54:32;7.30;;;5.70;;
17890;SDS011;9071;48.220;14.480;2022-08-21T17:59:34;7.72;;;6.30;;
17890;SDS011;9071;48.220;14.480;2022-08-21T18:04:36;20.00;;;11.60;;
17890;SDS011;9071;48.220;14.480;2022-08-21T18:09:39;18.52;;;13.23;;
17890;SDS011;9071;48.220;14.480;2022-08-21T18:14:42;10.50;;;7.88;;
17890;SDS011;9071;48.220;14.480;2022-08-21T18:19:44;11.02;;;6.45;;
17890;SDS011;9071;48.220;14.480;2022-08-21T18:24:47;8.02;;;6.35;;
17890;SDS011;9071;48.220;14.480;2022-08-21T18:29:49;7.63;;;6.72;;
17890;SDS011;9071;48.220;14.480;2022-08-21T18:34:54;8.75;;;6.57;;
17890;SDS011;9071;48.220;14.480;2022-08-21T18:40:00;7.35;;;6.25;;
17890;SDS011;9071;48.220;14.480;2022-08-21T18:45:03;7.43;;;6.60;;
17890;SDS011;9071;48.220;14.480;2022-08-21T18:50:11;10.05;;;7.55;;
17890;SDS011;9071;48.220;14.480;2022-08-21T18:55:16;9.38;;;7.32;;
17890;SDS011;9071;48.220;14.480;2022-08-21T19:00:19;10.20;;;7.65;;
17890;SDS011;9071;48.220;14.480;2022-08-21T19:05:23;10.50;;;6.70;;
17890;SDS011;9071;48.220;14.480;2022-08-21T19:10:28;8.43;;;7.20;;
17890;SDS011;9071;48.220;14.480;2022-08-21T19:15:30;7.88;;;7.07;;
17890;SDS011;9071;48.220;14.480;2022-08-21T19:20:34;7.85;;;7.00;;
17890;SDS011;9071;48.220;14.480;2022-08-21T19:25:42;8.95;;;6.95;;
17890;SDS011;9071;48.220;14.480;2022-08-21T19:30:50;9.20;;;7.38;;
17890;SDS011;9071;48.220;14.480;2022-08-21T19:35:56;7.82;;;6.90;;
17890;SDS011;9071;48.220;14.480;2022-08-21T19:41:00;12.63;;;8.40;;
17890;SDS011;9071;48.220;14.480;2022-08-21T19:46:03;9.27;;;7.70;;
17890;SDS011;9071;48.220;14.480;2022-08-21T19:51:05;10.30;;;7.60;;
17890;SDS011;9071;48.220;14.480;2022-08-21T19:56:09;7.88;;;6.70;;
17890;SDS011;9071;48.220;14.480;2022-08-21T20:01:17;9.20;;;7.47;;
17890;SDS011;9071;48.220;14.480;2022-08-21T20:06:21;11.82;;;7.40;;
17890;SDS011;9071;48.220;14.480;2022-08-21T20:11:25;8.15;;;7.25;;
17890;SDS011;9071;48.220;14.480;2022-08-21T20:16:29;8.52;;;7.53;;
17890;SDS011;9071;48.220;14.480;2022-08-21T20:21:33;9.48;;;7.25;;
17890;SDS011;9071;48.220;14.480;2022-08-21T20:26:37;7.65;;;6.65;;
17890;SDS011;9071;48.220;14.480;2022-08-21T20:31:39;9.57;;;8.23;;
17890;SDS011;9071;48.220;14.480;2022-08-21T20:36:42;10.82;;;8.25;;
17890;SDS011;9071;48.220;14.480;2022-08-21T20:41:45;8.45;;;7.40;;
17890;SDS011;9071;48.220;14.480;2022-08-21T20:46:48;9.13;;;7.30;;
17890;SDS011;9071;48.220;14.480;2022-08-21T20:51:50;9.55;;;7.43;;
17890;SDS011;9071;48.220;14.480;2022-08-21T20:56:55;10.80;;;8.68;;
17890;SDS011;9071;48.220;14.480;2022-08-21T21:02:03;11.85;;;9.50;;
17890;SDS011;9071;48.220;14.480;2022-08-21T21:07:17;9.35;;;7.97;;
17890;SDS011;9071;48.220;14.480;2022-08-21T21:12:27;9.02;;;7.82;;
17890;SDS011;9071;48.220;14.480;2022-08-21T21:17:34;11.32;;;8.77;;
17890;SDS011;9071;48.220;14.480;2022-08-21T21:22:42;12.20;;;8.50;;
17890;SDS011;9071;48.220;14.480;2022-08-21T21:27:52;10.10;;;8.60;;
17890;SDS011;9071;48.220;14.480;2022-08-21T21:32:57;10.25;;;8.70;;
17890;SDS011;9071;48.220;14.480;2022-08-21T21:38:00;11.85;;;8.23;;
17890;SDS011;9071;48.220;14.480;2022-08-21T21:43:10;10.75;;;8.63;;
17890;SDS011;9071;48.220;14.480;2022-08-21T21:48:24;11.60;;;9.52;;
17890;SDS011;9071;48.220;14.480;2022-08-21T21:53:39;13.13;;;8.57;;
17890;SDS011;9071;48.220;14.480;2022-08-21T21:58:57;12.40;;;8.50;;
17890;SDS011;9071;48.220;14.480;2022-08-21T22:04:14;12.27;;;7.97;;
17890;SDS011;9071;48.220;14.480;2022-08-21T22:09:23;14.82;;;11.50;;
17890;SDS011;9071;48.220;14.480;2022-08-21T22:14:42;14.80;;;9.65;;
17890;SDS011;9071;48.220;14.480;2022-08-21T22:19:45;11.50;;;9.13;;
17890;SDS011;9071;48.220;14.480;2022-08-21T22:24:49;9.93;;;8.90;;
17890;SDS011;9071;48.220;14.480;2022-08-21T22:29:57;13.70;;;10.20;;
17890;SDS011;9071;48.220;14.480;2022-08-21T22:35:03;13.32;;;10.07;;
17890;SDS011;9071;48.220;14.480;2022-08-21T22:40:08;13.07;;;10.68;;
17890;SDS011;9071;48.220;14.480;2022-08-21T22:45:14;17.42;;;11.20;;
17890;SDS011;9071;48.220;14.480;2022-08-21T22:50:27;14.98;;;11.68;;
17890;SDS011;9071;48.220;14.480;2022-08-21T22:55:33;17.52;;;12.95;;
17890;SDS011;9071;48.220;14.480;2022-08-21T23:00:42;16.15;;;12.25;;
17890;SDS011;9071;48.220;14.480;2022-08-21T23:05:49;17.73;;;12.38;;
17890;SDS011;9071;48.220;14.480;2022-08-21T23:10:56;17.70;;;12.88;;
17890;SDS011;9071;48.220;14.480;2022-08-21T23:16:03;19.13;;;13.38;;
17890;SDS011;9071;48.220;14.480;2022-08-21T23:21:14;18.50;;;12.70;;
17890;SDS011;9071;48.220;14.480;2022-08-21T23:26:23;18.10;;;13.32;;
17890;SDS011;9071;48.220;14.480;2022-08-21T23:31:34;20.27;;;12.95;;
17890;SDS011;9071;48.220;14.480;2022-08-21T23:36:44;19.45;;;12.02;;
17890;SDS011;9071;48.220;14.480;2022-08-21T23:42:19;15.57;;;11.98;;
17890;SDS011;9071;48.220;14.480;2022-08-21T23:47:34;16.30;;;12.20;;
17890;SDS011;9071;48.220;14.480;2022-08-21T23:52:47;19.15;;;13.00;;
17890;SDS011;9071;48.220;14.480;2022-08-21T23:58:01;19.00;;;13.30;;
